Time;durP1;ratioP1;P1;durP2;ratioP2;P2;SDS_P1;SDS_P2;PMS_P1;PMS_P2;Temp;Humidity;BMP_temperature;BMP_pressure;BME280_temperature;BME280_humidity;BME280_pressure;Samples;Min_cycle;Max_cycle;Signal;HPM_P1;HPM_P2
2022/02/13 00:02:03;;;;;;;13.18;8.13;;;;;;;;;;5024068;28;20460;-78
2022/02/13 00:04:30;;;;;;;11.50;7.50;;;;;;;;;;5041976;28;20018;-78
2022/02/13 00:06:56;;;;;;;9.77;6.50;;;;;;;;;;5024048;28;20112;-77
2022/02/13 00:09:23;;;;;;;10.82;6.47;;;;;;;;;;5041062;28;20040;-78
2022/02/13 00:11:49;;;;;;;10.35;7.13;;;;;;;;;;5042398;28;20017;-78
2022/02/13 00:14:15;;;;;;;11.75;7.45;;;;;;;;;;5024172;28;20029;-77
2022/02/13 00:16:45;;;;;;;11.30;7.55;;;;;;;;;;5025109;28;20030;-77
2022/02/13 00:19:11;;;;;;;10.43;6.25;;;;;;;;;;5042315;28;20525;-77
2022/02/13 00:21:37;;;;;;;13.02;7.13;;;;;;;;;;5042134;28;20033;-77
2022/02/13 00:24:04;;;;;;;13.35;7.38;;;;;;;;;;5039301;28;20080;-78
2022/02/13 00:26:30;;;;;;;11.98;7.15;;;;;;;;;;5026449;28;20021;-77
2022/02/13 00:28:56;;;;;;;11.50;7.28;;;;;;;;;;5026003;28;20112;-77
2022/02/13 00:31:22;;;;;;;10.73;6.60;;;;;;;;;;5023139;28;20032;-78
2022/02/13 00:33:48;;;;;;;11.43;7.15;;;;;;;;;;5024357;28;20025;-77
2022/02/13 00:36:14;;;;;;;11.55;7.43;;;;;;;;;;5042902;28;20033;-78
2022/02/13 00:38:40;;;;;;;10.88;7.10;;;;;;;;;;5041841;28;20508;-78
2022/02/13 00:41:07;;;;;;;12.23;7.80;;;;;;;;;;5025764;28;20112;-77
2022/02/13 00:43:33;;;;;;;12.15;7.40;;;;;;;;;;5045717;28;20042;-77
2022/02/13 00:45:59;;;;;;;13.88;8.02;;;;;;;;;;5003988;28;20060;-77
2022/02/13 00:48:25;;;;;;;12.10;7.28;;;;;;;;;;5004728;28;20030;-78
2022/02/13 00:50:51;;;;;;;11.48;7.28;;;;;;;;;;5021974;28;20029;-79
2022/02/13 00:53:17;;;;;;;10.85;7.38;;;;;;;;;;5022315;28;20037;-78
2022/02/13 00:55:46;;;;;;;13.18;7.60;;;;;;;;;;5020494;28;20026;-78
2022/02/13 00:58:13;;;;;;;11.10;6.78;;;;;;;;;;5004384;28;20030;-79
2022/02/13 01:00:39;;;;;;;11.82;7.45;;;;;;;;;;5002844;28;20044;-78
2022/02/13 01:03:05;;;;;;;13.35;7.82;;;;;;;;;;5004402;28;20479;-77
2022/02/13 01:05:39;;;;;;;14.15;7.88;;;;;;;;;;5020851;28;20026;-78
2022/02/13 01:08:05;;;;;;;12.23;7.80;;;;;;;;;;5003432;28;20037;-76
2022/02/13 01:10:32;;;;;;;12.38;8.57;;;;;;;;;;5003258;28;20581;-77
2022/02/13 01:13:05;;;;;;;12.98;7.90;;;;;;;;;;5003497;28;20044;-77
2022/02/13 01:15:31;;;;;;;12.50;7.40;;;;;;;;;;5020946;28;20025;-75
2022/02/13 01:17:58;;;;;;;12.80;8.13;;;;;;;;;;5003071;28;20030;-77
2022/02/13 01:20:24;;;;;;;12.75;7.88;;;;;;;;;;5020181;28;20037;-77
2022/02/13 01:22:52;;;;;;;14.82;8.60;;;;;;;;;;5021082;28;20018;-76
2022/02/13 01:25:18;;;;;;;12.65;7.32;;;;;;;;;;5020263;28;20406;-76
2022/02/13 01:27:45;;;;;;;12.55;8.35;;;;;;;;;;5020304;28;20037;-76
2022/02/13 01:30:11;;;;;;;15.48;8.07;;;;;;;;;;5021304;28;20537;-77
2022/02/13 01:32:37;;;;;;;14.70;8.60;;;;;;;;;;5019929;28;20033;-76
2022/02/13 01:35:04;;;;;;;15.70;8.85;;;;;;;;;;5002332;28;20525;-77
2022/02/13 01:37:31;;;;;;;12.30;7.90;;;;;;;;;;5020020;28;20050;-76
2022/02/13 01:40:05;;;;;;;13.95;7.85;;;;;;;;;;5020017;28;20026;-76
2022/02/13 01:42:32;;;;;;;12.55;8.00;;;;;;;;;;5001785;28;20072;-77
2022/02/13 01:44:58;;;;;;;11.85;7.68;;;;;;;;;;5015823;28;20033;-77
2022/02/13 01:47:29;;;;;;;12.95;8.40;;;;;;;;;;5001714;28;20042;-77
2022/02/13 01:49:55;;;;;;;14.38;7.78;;;;;;;;;;5000522;28;20514;-78
2022/02/13 01:52:22;;;;;;;13.00;7.97;;;;;;;;;;5008323;28;20049;-76
2022/02/13 01:54:48;;;;;;;11.43;7.32;;;;;;;;;;5011629;28;20193;-77
2022/02/13 01:57:14;;;;;;;13.00;7.57;;;;;;;;;;5018456;28;20398;-76
2022/02/13 01:59:41;;;;;;;13.80;8.45;;;;;;;;;;5000489;28;20041;-76
2022/02/13 02:02:07;;;;;;;12.75;8.00;;;;;;;;;;5001619;28;20033;-78
2022/02/13 02:04:33;;;;;;;13.48;8.18;;;;;;;;;;5018502;28;20018;-76
2022/02/13 02:07:03;;;;;;;12.30;8.25;;;;;;;;;;5018176;28;20080;-76
2022/02/13 02:09:29;;;;;;;11.10;7.25;;;;;;;;;;5018807;28;20018;-77
2022/02/13 02:11:56;;;;;;;13.38;7.90;;;;;;;;;;5019348;28;20036;-76
2022/02/13 02:14:22;;;;;;;12.02;8.05;;;;;;;;;;5000146;28;20033;-76
2022/02/13 02:16:48;;;;;;;14.52;8.23;;;;;;;;;;5002271;28;20454;-77
2022/02/13 02:19:17;;;;;;;11.60;7.68;;;;;;;;;;5017720;28;20054;-77
2022/02/13 02:21:44;;;;;;;16.85;9.15;;;;;;;;;;5018578;28;20034;-78
2022/02/13 02:24:17;;;;;;;12.45;8.40;;;;;;;;;;5034152;28;20045;-76
2022/02/13 02:26:43;;;;;;;14.50;8.88;;;;;;;;;;5020010;28;20018;-77
2022/02/13 02:29:10;;;;;;;14.95;8.95;;;;;;;;;;5018949;28;20026;-76
2022/02/13 02:31:36;;;;;;;15.18;9.48;;;;;;;;;;5017862;28;20030;-77
2022/02/13 02:34:09;;;;;;;14.07;7.85;;;;;;;;;;5019515;28;20576;-78
2022/02/13 02:36:35;;;;;;;14.73;8.25;;;;;;;;;;5013562;28;20101;-76
2022/02/13 02:39:01;;;;;;;13.68;8.93;;;;;;;;;;5016642;28;20029;-76
2022/02/13 02:41:28;;;;;;;15.80;9.50;;;;;;;;;;5018579;28;20030;-77
2022/02/13 02:43:54;;;;;;;16.52;8.88;;;;;;;;;;5008781;28;20045;-77
2022/02/13 02:46:20;;;;;;;14.48;8.05;;;;;;;;;;5014793;28;20064;-77
2022/02/13 02:48:46;;;;;;;14.77;8.63;;;;;;;;;;5012898;28;20025;-77
2022/02/13 02:51:13;;;;;;;14.35;9.02;;;;;;;;;;5038623;28;20026;-76
2022/02/13 02:53:42;;;;;;;14.48;9.13;;;;;;;;;;5036644;28;20489;-77
2022/02/13 02:56:09;;;;;;;15.88;8.43;;;;;;;;;;5037788;28;20018;-77
2022/02/13 02:58:35;;;;;;;13.23;8.20;;;;;;;;;;5038126;28;20599;-78
2022/02/13 03:01:01;;;;;;;14.25;8.60;;;;;;;;;;5039067;28;20029;-78
2022/02/13 03:03:27;;;;;;;15.48;10.05;;;;;;;;;;5038382;28;20029;-76
2022/02/13 03:05:54;;;;;;;13.35;8.52;;;;;;;;;;5030250;28;20029;-77
2022/02/13 03:08:20;;;;;;;13.20;7.90;;;;;;;;;;5024950;28;20025;-77
2022/02/13 03:10:47;;;;;;;15.32;9.23;;;;;;;;;;5023697;28;20053;-78
2022/02/13 03:13:16;;;;;;;12.13;7.82;;;;;;;;;;5060977;28;20021;-76
2022/02/13 03:15:42;;;;;;;13.95;8.77;;;;;;;;;;5050847;28;20026;-77
2022/02/13 03:18:08;;;;;;;13.82;9.18;;;;;;;;;;5040486;28;20366;-78
2022/02/13 03:20:34;;;;;;;12.50;7.63;;;;;;;;;;5024785;28;20021;-77
2022/02/13 03:23:00;;;;;;;13.48;8.43;;;;;;;;;;5042069;28;20021;-78
2022/02/13 03:25:27;;;;;;;12.13;7.95;;;;;;;;;;5041678;28;20477;-77
2022/02/13 03:27:53;;;;;;;13.95;8.50;;;;;;;;;;5006817;28;20437;-77
2022/02/13 03:30:19;;;;;;;12.60;7.75;;;;;;;;;;5017875;28;20021;-78
2022/02/13 03:32:46;;;;;;;14.68;8.73;;;;;;;;;;5043827;28;20035;-78
2022/02/13 03:35:12;;;;;;;15.02;9.10;;;;;;;;;;5023079;28;20052;-78
2022/02/13 03:37:42;;;;;;;11.98;8.75;;;;;;;;;;5026603;28;20025;-79
2022/02/13 03:40:09;;;;;;;13.00;7.88;;;;;;;;;;5022341;28;20076;-77
2022/02/13 03:42:35;;;;;;;14.63;8.15;;;;;;;;;;5048078;28;20032;-78
2022/02/13 03:45:02;;;;;;;12.93;7.80;;;;;;;;;;5063315;28;20045;-78
2022/02/13 03:47:28;;;;;;;13.93;8.00;;;;;;;;;;5063134;28;20139;-77
2022/02/13 03:49:55;;;;;;;14.15;8.20;;;;;;;;;;5061788;28;20029;-77
2022/02/13 03:52:21;;;;;;;14.38;8.18;;;;;;;;;;5045828;28;20036;-78
2022/02/13 03:54:49;;;;;;;13.30;8.52;;;;;;;;;;5036904;28;20033;-77
2022/02/13 03:57:16;;;;;;;13.77;8.43;;;;;;;;;;5049368;28;20497;-77
2022/02/13 03:59:45;;;;;;;12.95;8.20;;;;;;;;;;5047515;28;20099;-77
2022/02/13 04:02:11;;;;;;;15.45;9.00;;;;;;;;;;5034876;28;20079;-76
2022/02/13 04:04:37;;;;;;;14.70;8.70;;;;;;;;;;5036937;28;20496;-78
2022/02/13 04:07:04;;;;;;;13.13;8.75;;;;;;;;;;5041811;28;20029;-76
2022/02/13 04:09:31;;;;;;;14.20;8.38;;;;;;;;;;5024704;28;20057;-77
2022/02/13 04:11:59;;;;;;;15.25;8.95;;;;;;;;;;5004832;28;20036;-76
2022/02/13 04:14:25;;;;;;;13.82;8.25;;;;;;;;;;5022581;28;20493;-76
2022/02/13 04:16:52;;;;;;;15.13;8.68;;;;;;;;;;5040280;28;20107;-76
2022/02/13 04:19:18;;;;;;;15.02;8.48;;;;;;;;;;5035951;28;20026;-77
2022/02/13 04:21:44;;;;;;;13.75;9.07;;;;;;;;;;5027805;28;20021;-77
2022/02/13 04:24:13;;;;;;;14.88;9.45;;;;;;;;;;5015708;28;20022;-78
2022/02/13 04:26:40;;;;;;;13.23;8.20;;;;;;;;;;5041417;28;20101;-78
2022/02/13 04:29:07;;;;;;;14.82;8.38;;;;;;;;;;5016990;28;20029;-78
2022/02/13 04:31:33;;;;;;;15.75;8.32;;;;;;;;;;5041321;28;20045;-78
2022/02/13 04:33:59;;;;;;;13.68;7.53;;;;;;;;;;5020702;28;20037;-77
2022/02/13 04:36:25;;;;;;;14.82;8.35;;;;;;;;;;5022021;28;20076;-77
2022/02/13 04:38:51;;;;;;;14.40;9.25;;;;;;;;;;5056418;28;20523;-79
2022/02/13 04:41:21;;;;;;;14.23;9.57;;;;;;;;;;5045986;28;20040;-77
2022/02/13 04:43:47;;;;;;;15.90;9.93;;;;;;;;;;5036611;28;20397;-76
2022/02/13 04:46:16;;;;;;;14.23;10.13;;;;;;;;;;5040399;28;20449;-76
2022/02/13 04:48:42;;;;;;;16.33;9.38;;;;;;;;;;5036787;28;20065;-77
2022/02/13 04:51:09;;;;;;;14.38;9.65;;;;;;;;;;5037520;28;20037;-76
2022/02/13 04:53:38;;;;;;;17.38;10.20;;;;;;;;;;5039041;28;20056;-77
2022/02/13 04:56:05;;;;;;;18.08;9.68;;;;;;;;;;5004195;28;20144;-77
2022/02/13 04:58:32;;;;;;;17.63;9.85;;;;;;;;;;5039785;28;20026;-79
2022/02/13 05:00:58;;;;;;;19.02;10.23;;;;;;;;;;5034736;28;20041;-77
2022/02/13 05:03:24;;;;;;;15.95;9.48;;;;;;;;;;5040069;28;20022;-76
2022/02/13 05:05:54;;;;;;;15.02;9.90;;;;;;;;;;5021700;28;20048;-77
2022/02/13 05:08:21;;;;;;;15.35;10.15;;;;;;;;;;5033721;28;20021;-78
2022/02/13 05:10:47;;;;;;;16.73;9.77;;;;;;;;;;5009411;28;20060;-78
2022/02/13 05:13:13;;;;;;;14.57;9.25;;;;;;;;;;5037069;28;20085;-78
2022/02/13 05:15:40;;;;;;;15.50;9.88;;;;;;;;;;5015014;28;20028;-77
2022/02/13 05:18:06;;;;;;;15.93;9.70;;;;;;;;;;5038772;28;20060;-78
2022/02/13 05:20:32;;;;;;;16.63;9.52;;;;;;;;;;5040647;28;20076;-78
2022/02/13 05:22:58;;;;;;;15.68;9.85;;;;;;;;;;5058446;28;20291;-78
2022/02/13 05:25:24;;;;;;;15.35;9.88;;;;;;;;;;5054649;28;20032;-76
2022/02/13 05:27:51;;;;;;;16.63;9.40;;;;;;;;;;5040238;28;20025;-78
2022/02/13 05:30:17;;;;;;;15.15;10.13;;;;;;;;;;5021952;28;20029;-77
2022/02/13 05:32:44;;;;;;;17.23;10.70;;;;;;;;;;5038011;28;20041;-77
2022/02/13 05:35:10;;;;;;;15.52;9.95;;;;;;;;;;5038434;28;20037;-78
2022/02/13 05:37:39;;;;;;;15.57;9.68;;;;;;;;;;5021327;28;20033;-77
2022/02/13 05:40:05;;;;;;;15.95;10.25;;;;;;;;;;5035046;28;20115;-76
2022/02/13 05:42:31;;;;;;;17.65;10.55;;;;;;;;;;5037387;28;20029;-78
2022/02/13 05:44:57;;;;;;;16.70;10.40;;;;;;;;;;5036690;28;20046;-77
2022/02/13 05:47:26;;;;;;;17.77;9.50;;;;;;;;;;5003972;28;20037;-77
2022/02/13 05:49:52;;;;;;;15.48;9.25;;;;;;;;;;5033385;28;20056;-78
2022/02/13 05:52:19;;;;;;;19.00;10.45;;;;;;;;;;5028391;28;20048;-78
2022/02/13 05:54:45;;;;;;;16.33;9.88;;;;;;;;;;5035553;28;20025;-77
2022/02/13 05:57:11;;;;;;;15.35;9.13;;;;;;;;;;5018332;28;20040;-78
2022/02/13 05:59:37;;;;;;;16.77;9.60;;;;;;;;;;5041230;28;20048;-78
2022/02/13 06:02:04;;;;;;;20.50;10.35;;;;;;;;;;5029589;28;20468;-78
2022/02/13 06:04:30;;;;;;;17.67;10.50;;;;;;;;;;5034491;28;20060;-78
2022/02/13 06:06:56;;;;;;;15.45;9.45;;;;;;;;;;5010388;28;20029;-79
2022/02/13 06:09:23;;;;;;;16.85;10.35;;;;;;;;;;5022766;28;20021;-79
2022/02/13 06:11:50;;;;;;;13.90;9.38;;;;;;;;;;5036763;28;20026;-79
2022/02/13 06:14:16;;;;;;;15.88;9.82;;;;;;;;;;5022822;28;20048;-79
2022/02/13 06:16:43;;;;;;;16.33;9.77;;;;;;;;;;5014775;28;20025;-80
2022/02/13 06:19:09;;;;;;;16.20;10.20;;;;;;;;;;5022772;28;20029;-79
2022/02/13 06:21:35;;;;;;;17.33;10.32;;;;;;;;;;5015334;28;20026;-80
2022/02/13 06:24:01;;;;;;;16.25;10.10;;;;;;;;;;5017058;28;20022;-78
2022/02/13 06:26:28;;;;;;;18.27;9.85;;;;;;;;;;5020936;28;20044;-78
2022/02/13 06:28:55;;;;;;;16.60;9.95;;;;;;;;;;5035116;28;20013;-80
2022/02/13 06:31:22;;;;;;;18.30;9.75;;;;;;;;;;5021707;28;20113;-79
2022/02/13 06:33:48;;;;;;;18.95;9.98;;;;;;;;;;5021972;28;20404;-82
2022/02/13 06:36:15;;;;;;;16.55;10.48;;;;;;;;;;5039432;28;20485;-81
2022/02/13 06:38:41;;;;;;;17.38;11.50;;;;;;;;;;5021714;28;20384;-80
2022/02/13 06:41:07;;;;;;;21.95;11.88;;;;;;;;;;5022559;28;20388;-79
2022/02/13 06:43:33;;;;;;;18.05;10.65;;;;;;;;;;5021198;28;20103;-78
2022/02/13 06:46:00;;;;;;;19.75;10.65;;;;;;;;;;5040891;28;20018;-78
2022/02/13 06:48:34;;;;;;;17.67;10.55;;;;;;;;;;5024697;28;20048;-79
2022/02/13 06:51:04;;;;;;;16.85;11.45;;;;;;;;;;5041535;28;20092;-80
2022/02/13 06:53:30;;;;;;;19.13;10.07;;;;;;;;;;5023662;28;20064;-81
2022/02/13 06:55:56;;;;;;;17.48;9.80;;;;;;;;;;5040680;28;20052;-81
2022/02/13 06:58:22;;;;;;;16.17;9.27;;;;;;;;;;5023889;28;20022;-81
2022/02/13 07:00:48;;;;;;;15.90;9.93;;;;;;;;;;5022085;28;20029;-78
2022/02/13 07:03:14;;;;;;;14.30;9.45;;;;;;;;;;5039869;28;20084;-78
2022/02/13 07:05:41;;;;;;;15.35;10.30;;;;;;;;;;5022727;28;20105;-79
2022/02/13 07:08:07;;;;;;;15.45;9.18;;;;;;;;;;5021678;28;20033;-80
2022/02/13 07:10:34;;;;;;;16.38;9.77;;;;;;;;;;5022586;28;20025;-80
2022/02/13 07:13:00;;;;;;;16.95;10.25;;;;;;;;;;5026594;28;20021;-80
2022/02/13 07:15:27;;;;;;;13.68;9.88;;;;;;;;;;5040348;28;20392;-81
2022/02/13 07:17:54;;;;;;;15.00;9.00;;;;;;;;;;5022167;28;20025;-79
2022/02/13 07:20:20;;;;;;;15.82;9.25;;;;;;;;;;5021672;28;20026;-80
2022/02/13 07:22:46;;;;;;;15.77;9.65;;;;;;;;;;5039296;28;20456;-81
2022/02/13 07:25:13;;;;;;;15.35;8.70;;;;;;;;;;5022093;28;20025;-80
2022/02/13 07:27:39;;;;;;;17.88;9.70;;;;;;;;;;5021340;28;20081;-78
2022/02/13 07:30:12;;;;;;;13.73;9.35;;;;;;;;;;5039561;28;20397;-81
2022/02/13 07:32:40;;;;;;;13.82;9.38;;;;;;;;;;5021619;28;20029;-79
2022/02/13 07:35:06;;;;;;;14.60;9.60;;;;;;;;;;5038807;28;20037;-80
2022/02/13 07:37:32;;;;;;;13.98;8.10;;;;;;;;;;5022967;28;20140;-82
2022/02/13 07:39:58;;;;;;;11.73;7.47;;;;;;;;;;5022709;28;20036;-80
2022/02/13 07:42:24;;;;;;;13.63;8.65;;;;;;;;;;5021938;28;20027;-79
2022/02/13 07:44:50;;;;;;;13.80;8.40;;;;;;;;;;5005625;28;20038;-79
2022/02/13 07:47:17;;;;;;;13.82;8.65;;;;;;;;;;5001182;28;20482;-80
2022/02/13 07:49:44;;;;;;;13.77;8.50;;;;;;;;;;5001960;28;20498;-81
2022/02/13 07:52:14;;;;;;;14.88;8.55;;;;;;;;;;5019680;28;20097;-80
2022/02/13 07:54:40;;;;;;;13.25;8.27;;;;;;;;;;5005805;28;20076;-80
2022/02/13 07:57:06;;;;;;;11.48;8.10;;;;;;;;;;5005695;28;20041;-78
2022/02/13 07:59:33;;;;;;;12.40;7.88;;;;;;;;;;5005273;28;20025;-81
2022/02/13 08:02:00;;;;;;;13.35;7.82;;;;;;;;;;5023099;28;20034;-80
2022/02/13 08:04:27;;;;;;;11.27;7.55;;;;;;;;;;5006056;28;20026;-80
2022/02/13 08:06:53;;;;;;;14.63;8.55;;;;;;;;;;5005012;28;20052;-78
2022/02/13 08:09:19;;;;;;;10.93;7.65;;;;;;;;;;5022550;28;20026;-80
2022/02/13 08:11:45;;;;;;;11.48;8.13;;;;;;;;;;5022052;28;20148;-79
2022/02/13 08:14:12;;;;;;;11.80;7.45;;;;;;;;;;5004368;28;20045;-78
2022/02/13 08:16:38;;;;;;;10.65;7.10;;;;;;;;;;5022141;28;20026;-79
2022/02/13 08:19:04;;;;;;;11.02;7.80;;;;;;;;;;5002879;28;20401;-79
2022/02/13 08:21:30;;;;;;;10.70;6.80;;;;;;;;;;5004796;28;20026;-79
2022/02/13 08:23:56;;;;;;;12.45;6.75;;;;;;;;;;5003773;28;20034;-77
2022/02/13 08:26:22;;;;;;;11.30;6.53;;;;;;;;;;5003776;28;20492;-79
2022/02/13 08:28:51;;;;;;;10.90;6.60;;;;;;;;;;5021298;28;20497;-79
2022/02/13 08:31:17;;;;;;;12.05;7.25;;;;;;;;;;5022632;28;20034;-81
2022/02/13 08:33:44;;;;;;;11.32;8.18;;;;;;;;;;5004242;28;20029;-79
2022/02/13 08:36:11;;;;;;;10.60;6.78;;;;;;;;;;5004345;28;20521;-81
2022/02/13 08:38:37;;;;;;;10.77;7.50;;;;;;;;;;5021740;28;20048;-82
2022/02/13 08:41:07;;;;;;;10.43;7.10;;;;;;;;;;5003790;28;20029;-81
2022/02/13 08:46:57;;;;;;;11.23;7.07;;;;;;;;;;4817804;28;20059;-81
2022/02/13 08:49:23;;;;;;;10.32;6.88;;;;;;;;;;5024747;28;20034;-80
2022/02/13 08:51:49;;;;;;;10.73;6.45;;;;;;;;;;5042076;28;20418;-80
2022/02/13 08:54:15;;;;;;;9.88;7.15;;;;;;;;;;5041534;28;20028;-79
2022/02/13 08:56:41;;;;;;;10.85;6.60;;;;;;;;;;5022806;28;20385;-80
2022/02/13 08:59:07;;;;;;;10.55;6.82;;;;;;;;;;5039922;28;20377;-81
2022/02/13 09:01:35;;;;;;;9.50;6.10;;;;;;;;;;5023098;28;20025;-82
2022/02/13 09:04:05;;;;;;;11.57;6.15;;;;;;;;;;5021691;28;20490;-81
2022/02/13 09:06:31;;;;;;;12.07;6.82;;;;;;;;;;5022151;28;20029;-81
2022/02/13 09:08:57;;;;;;;10.77;7.22;;;;;;;;;;5021493;28;20033;-80
2022/02/13 09:11:25;;;;;;;12.00;7.25;;;;;;;;;;5028486;28;20033;-80
2022/02/13 09:13:53;;;;;;;12.90;6.80;;;;;;;;;;5033518;28;20033;-79
2022/02/13 09:16:20;;;;;;;9.20;5.93;;;;;;;;;;5024778;28;20021;-79
2022/02/13 09:18:47;;;;;;;11.95;7.40;;;;;;;;;;5039961;28;20026;-80
2022/02/13 09:21:13;;;;;;;10.38;6.80;;;;;;;;;;5022128;28;20056;-81
2022/02/13 09:23:39;;;;;;;10.30;6.97;;;;;;;;;;5035447;28;20049;-80
2022/02/13 09:26:12;;;;;;;10.60;6.60;;;;;;;;;;5036917;28;20080;-81
2022/02/13 09:28:38;;;;;;;10.90;7.45;;;;;;;;;;5005019;28;20025;-80
2022/02/13 09:31:05;;;;;;;11.30;6.78;;;;;;;;;;5022084;28;20025;-78
2022/02/13 09:33:31;;;;;;;10.48;7.07;;;;;;;;;;5022914;28;20084;-79
2022/02/13 09:35:57;;;;;;;10.55;6.63;;;;;;;;;;5026569;28;20396;-78
2022/02/13 09:38:27;;;;;;;11.75;7.32;;;;;;;;;;5021940;28;20037;-79
2022/02/13 09:40:53;;;;;;;10.80;6.93;;;;;;;;;;5040413;28;20400;-80
2022/02/13 09:43:21;;;;;;;10.70;6.85;;;;;;;;;;5014861;28;20029;-79
2022/02/13 09:45:50;;;;;;;9.68;5.72;;;;;;;;;;5024639;28;20049;-80
2022/02/13 09:48:17;;;;;;;11.15;6.25;;;;;;;;;;5017935;28;20192;-80
2022/02/13 09:50:43;;;;;;;10.32;6.45;;;;;;;;;;5046098;28;20056;-80
2022/02/13 09:53:09;;;;;;;9.50;5.88;;;;;;;;;;5044448;28;20461;-80
2022/02/13 09:55:36;;;;;;;10.35;6.10;;;;;;;;;;5043773;28;20113;-81
2022/02/13 09:58:05;;;;;;;8.90;5.45;;;;;;;;;;5044154;28;20554;-79
2022/02/13 10:00:49;;;;;;;11.05;6.45;;;;;;;;;;5024847;28;20026;-81
2022/02/13 10:03:24;;;;;;;10.85;6.18;;;;;;;;;;5042389;28;20029;-81
2022/02/13 10:05:52;;;;;;;12.48;6.07;;;;;;;;;;5023204;28;20025;-80
2022/02/13 10:08:28;;;;;;;9.73;6.20;;;;;;;;;;5041825;28;20075;-81
2022/02/13 10:11:06;;;;;;;9.02;6.00;;;;;;;;;;5025242;28;20513;-79
2022/02/13 10:13:43;;;;;;;8.25;5.60;;;;;;;;;;5021877;28;20025;-80
2022/02/13 10:16:16;;;;;;;11.57;6.25;;;;;;;;;;5041016;28;20025;-79
2022/02/13 10:18:50;;;;;;;10.95;6.40;;;;;;;;;;5023785;28;20454;-79
2022/02/13 10:21:29;;;;;;;9.20;5.53;;;;;;;;;;5038655;28;20397;-79
2022/02/13 10:24:14;;;;;;;8.38;5.82;;;;;;;;;;5004475;28;20026;-79
2022/02/13 10:26:41;;;;;;;11.70;6.03;;;;;;;;;;5022957;28;20025;-80
2022/02/13 10:29:08;;;;;;;8.77;5.10;;;;;;;;;;5021503;28;20028;-80
2022/02/13 10:31:35;;;;;;;10.40;6.07;;;;;;;;;;5021245;28;20112;-81
2022/02/13 10:34:01;;;;;;;10.20;5.93;;;;;;;;;;5040216;28;20099;-80
2022/02/13 10:36:27;;;;;;;11.15;6.57;;;;;;;;;;5022136;28;20025;-78
2022/02/13 10:38:54;;;;;;;10.43;6.68;;;;;;;;;;5022361;28;20382;-79
2022/02/13 10:41:29;;;;;;;10.90;6.20;;;;;;;;;;5034750;28;20029;-80
2022/02/13 10:43:57;;;;;;;10.38;6.40;;;;;;;;;;5021503;28;20036;-80
2022/02/13 10:46:25;;;;;;;10.82;6.72;;;;;;;;;;5057708;28;20031;-80
2022/02/13 10:48:51;;;;;;;10.32;6.63;;;;;;;;;;5023050;28;20093;-79
2022/02/13 10:51:19;;;;;;;9.77;6.22;;;;;;;;;;5021899;28;20108;-81
2022/02/13 10:53:46;;;;;;;9.82;6.00;;;;;;;;;;5021897;28;20025;-79
2022/02/13 10:56:12;;;;;;;9.95;5.88;;;;;;;;;;5022903;28;20030;-80
2022/02/13 10:58:39;;;;;;;11.38;6.68;;;;;;;;;;5038405;28;20029;-79
2022/02/13 11:01:09;;;;;;;11.38;6.30;;;;;;;;;;5043904;28;20029;-81
2022/02/13 11:03:36;;;;;;;9.88;6.65;;;;;;;;;;5031294;28;20481;-79
2022/02/13 11:06:06;;;;;;;10.63;6.22;;;;;;;;;;5057600;28;20021;-80
2022/02/13 11:08:44;;;;;;;9.48;5.90;;;;;;;;;;5044500;28;20029;-79
2022/02/13 11:11:14;;;;;;;8.73;5.88;;;;;;;;;;5022085;28;20026;-79
2022/02/13 11:13:44;;;;;;;9.07;5.75;;;;;;;;;;5021816;28;20021;-80
2022/02/13 11:16:29;;;;;;;10.93;6.35;;;;;;;;;;5022049;28;20032;-78
2022/02/13 11:18:58;;;;;;;14.40;6.75;;;;;;;;;;5007953;28;20708;-79
2022/02/13 11:21:27;;;;;;;10.65;6.65;;;;;;;;;;5021933;28;20508;-80
2022/02/13 11:23:54;;;;;;;8.63;5.78;;;;;;;;;;5044517;28;20017;-81
2022/02/13 11:26:40;;;;;;;9.45;6.45;;;;;;;;;;5043436;28;20025;-80
2022/02/13 11:29:07;;;;;;;9.10;6.22;;;;;;;;;;4998428;28;20345;-81
2022/02/13 11:31:55;;;;;;;8.90;6.00;;;;;;;;;;5026718;28;20033;-79
2022/02/13 11:34:29;;;;;;;10.45;6.18;;;;;;;;;;5023957;28;20053;-78
2022/02/13 11:37:08;;;;;;;9.60;6.03;;;;;;;;;;5033308;28;20059;-81
2022/02/13 11:39:39;;;;;;;10.80;6.82;;;;;;;;;;5007217;28;20030;-79
2022/02/13 11:42:15;;;;;;;9.77;6.20;;;;;;;;;;5034225;28;20029;-78
2022/02/13 11:44:42;;;;;;;10.93;6.63;;;;;;;;;;5023689;28;20018;-80
2022/02/13 11:47:10;;;;;;;11.15;6.53;;;;;;;;;;5023468;28;20046;-80
2022/02/13 11:49:56;;;;;;;9.73;6.82;;;;;;;;;;5023169;28;20029;-79
2022/02/13 11:52:27;;;;;;;9.55;6.13;;;;;;;;;;5041083;28;20038;-81
2022/02/13 11:54:54;;;;;;;9.90;6.25;;;;;;;;;;5012301;28;20103;-79
2022/02/13 11:57:20;;;;;;;9.38;6.10;;;;;;;;;;5040571;28;20079;-80
2022/02/13 11:59:51;;;;;;;10.38;6.07;;;;;;;;;;5022224;28;20030;-77
2022/02/13 12:02:18;;;;;;;10.30;6.80;;;;;;;;;;5022572;28;20378;-79
2022/02/13 12:05:06;;;;;;;9.00;5.65;;;;;;;;;;5022741;28;20027;-80
2022/02/13 12:07:35;;;;;;;9.63;5.50;;;;;;;;;;5003322;28;20033;-79
2022/02/13 12:10:01;;;;;;;9.32;5.43;;;;;;;;;;5003144;28;20104;-80
2022/02/13 12:12:31;;;;;;;9.70;5.78;;;;;;;;;;5022228;28;20047;-81
2022/02/13 12:14:57;;;;;;;10.57;6.15;;;;;;;;;;5022583;28;20041;-78
2022/02/13 12:17:27;;;;;;;10.35;5.95;;;;;;;;;;5042382;28;20021;-79
2022/02/13 12:20:00;;;;;;;9.35;6.32;;;;;;;;;;5023620;28;20033;-81
2022/02/13 12:22:27;;;;;;;9.38;6.13;;;;;;;;;;5040326;28;20033;-80
2022/02/13 12:24:55;;;;;;;10.07;6.00;;;;;;;;;;5040647;28;20040;-79
2022/02/13 12:27:22;;;;;;;11.10;5.43;;;;;;;;;;5040936;28;20389;-79
2022/02/13 12:29:54;;;;;;;8.40;5.63;;;;;;;;;;5021893;28;20029;-80
2022/02/13 12:32:24;;;;;;;9.57;6.05;;;;;;;;;;5042385;28;20075;-79
2022/02/13 12:34:57;;;;;;;8.65;5.38;;;;;;;;;;5039342;28;20033;-79
2022/02/13 12:37:40;;;;;;;8.00;5.78;;;;;;;;;;5024740;28;20497;-79
2022/02/13 12:40:28;;;;;;;9.27;6.35;;;;;;;;;;5040235;28;20121;-79
2022/02/13 12:42:59;;;;;;;8.65;5.35;;;;;;;;;;5021969;28;20029;-80
2022/02/13 12:45:26;;;;;;;8.65;5.43;;;;;;;;;;5022604;28;20389;-79
2022/02/13 12:48:12;;;;;;;8.98;5.43;;;;;;;;;;5041270;28;20052;-78
2022/02/13 12:50:40;;;;;;;11.38;6.13;;;;;;;;;;5043630;28;20033;-80
2022/02/13 12:53:08;;;;;;;10.60;5.90;;;;;;;;;;5039785;28;20025;-79
2022/02/13 12:55:35;;;;;;;9.48;5.78;;;;;;;;;;5042248;28;20036;-79
2022/02/13 12:58:01;;;;;;;10.25;5.57;;;;;;;;;;5024019;28;20116;-80
2022/02/13 13:00:28;;;;;;;7.60;5.22;;;;;;;;;;5041917;28;20567;-78
2022/02/13 13:02:56;;;;;;;8.85;5.50;;;;;;;;;;5025126;28;20030;-80
2022/02/13 13:05:28;;;;;;;9.63;5.03;;;;;;;;;;5023621;28;20026;-80
2022/02/13 13:08:15;;;;;;;9.38;5.40;;;;;;;;;;5024430;28;20379;-79
2022/02/13 13:10:45;;;;;;;9.20;5.82;;;;;;;;;;5023655;28;20164;-79
2022/02/13 13:13:11;;;;;;;8.20;5.32;;;;;;;;;;5022393;28;20037;-80
2022/02/13 13:15:38;;;;;;;8.73;5.82;;;;;;;;;;5027559;28;20473;-82
2022/02/13 13:18:05;;;;;;;8.75;5.68;;;;;;;;;;5043747;28;20370;-81
2022/02/13 13:20:36;;;;;;;8.65;5.60;;;;;;;;;;5040105;28;20501;-82
2022/02/13 13:23:16;;;;;;;9.50;5.95;;;;;;;;;;5024404;28;20053;-80
2022/02/13 13:25:44;;;;;;;10.27;5.53;;;;;;;;;;5038708;28;20031;-80
2022/02/13 13:28:12;;;;;;;8.98;5.55;;;;;;;;;;5022259;28;20049;-81
2022/02/13 13:30:38;;;;;;;9.07;5.32;;;;;;;;;;5035801;28;20048;-80
2022/02/13 13:33:05;;;;;;;7.57;4.88;;;;;;;;;;5039080;28;20486;-79
2022/02/13 13:35:32;;;;;;;9.07;5.55;;;;;;;;;;5023405;28;20032;-80
2022/02/13 13:37:58;;;;;;;10.63;6.18;;;;;;;;;;5040750;28;20025;-79
2022/02/13 13:40:25;;;;;;;9.65;5.43;;;;;;;;;;5022464;28;20033;-83
2022/02/13 13:42:56;;;;;;;8.43;5.72;;;;;;;;;;5022490;28;20025;-82
2022/02/13 13:45:34;;;;;;;9.23;5.43;;;;;;;;;;5015680;28;20030;-81
2022/02/13 13:48:00;;;;;;;8.25;6.18;;;;;;;;;;5020117;28;20046;-80
2022/02/13 13:50:33;;;;;;;9.30;5.95;;;;;;;;;;5021996;28;20052;-80
2022/02/13 13:52:59;;;;;;;;;;;;;;;;;;5023232;28;20128;-79
2022/02/13 13:55:25;;;;;;;9.90;5.95;;;;;;;;;;5055561;28;20101;-81
2022/02/13 13:57:51;;;;;;;10.27;6.07;;;;;;;;;;5041195;28;20362;-79
2022/02/13 14:00:18;;;;;;;10.32;6.05;;;;;;;;;;5023608;28;20075;-83
2022/02/13 14:03:04;;;;;;;11.18;6.38;;;;;;;;;;5020474;28;20036;-80
2022/02/13 14:05:34;;;;;;;8.15;5.55;;;;;;;;;;5036975;28;20068;-80
2022/02/13 14:08:03;;;;;;;9.07;5.30;;;;;;;;;;5022306;28;20079;-80
2022/02/13 14:10:29;;;;;;;8.68;5.80;;;;;;;;;;5025824;28;20401;-79
2022/02/13 14:12:56;;;;;;;9.75;5.97;;;;;;;;;;5020894;28;20562;-81
2022/02/13 14:15:23;;;;;;;8.85;5.80;;;;;;;;;;5023127;28;20038;-79
2022/02/13 14:17:50;;;;;;;9.50;6.10;;;;;;;;;;5021695;28;20257;-78
2022/02/13 14:20:17;;;;;;;9.48;6.00;;;;;;;;;;5022110;28;20093;-80
2022/02/13 14:22:43;;;;;;;10.13;6.57;;;;;;;;;;5022520;28;20025;-81
2022/02/13 14:25:10;;;;;;;9.40;5.65;;;;;;;;;;5015228;28;20041;-80
2022/02/13 14:27:36;;;;;;;9.02;5.68;;;;;;;;;;5022730;28;20036;-80
2022/02/13 14:30:03;;;;;;;11.27;6.18;;;;;;;;;;5045934;28;20026;-79
2022/02/13 14:32:29;;;;;;;8.90;5.82;;;;;;;;;;5020766;28;20030;-81
2022/02/13 14:34:55;;;;;;;11.25;5.93;;;;;;;;;;5021633;28;20034;-79
2022/02/13 14:37:24;;;;;;;8.52;5.45;;;;;;;;;;5028941;28;20022;-80
2022/02/13 14:39:50;;;;;;;9.13;5.85;;;;;;;;;;5019395;28;20076;-81